Time;durP1;ratioP1;P1;durP2;ratioP2;P2;SDS_P1;SDS_P2;PMS_P1;PMS_P2;Temp;Humidity;BMP_temperature;BMP_pressure;BME280_temperature;BME280_humidity;BME280_pressure;Samples;Min_cycle;Max_cycle;Signal;HPM_P1;HPM_P2
2021/06/29 00:01:20;;;;;;;;;;;;;;;17.77;67.98;100614.14;1663644;84;25815;-75
2021/06/29 00:03:47;;;;;;;;;;;;;;;17.75;67.83;100614.90;1638953;86;26461;-75
2021/06/29 00:06:13;;;;;;;;;;;;;;;17.69;68.11;100613.95;1692841;84;27514;-75
2021/06/29 00:08:40;;;;;;;;;;;;;;;17.68;68.23;100609.59;1669411;84;25976;-75
2021/06/29 00:11:06;;;;;;;;;;;;;;;17.64;68.10;100607.60;1690825;84;26500;-75
2021/06/29 00:13:33;;;;;;;;;;;;;;;17.61;68.25;100606.18;1692362;84;26671;-75
2021/06/29 00:15:59;;;;;;;;;;;;;;;17.62;68.45;100610.52;1668903;84;25820;-75
2021/06/29 00:18:26;;;;;;;;;;;;;;;17.64;68.59;100614.38;1652611;84;27580;-75
2021/06/29 00:20:53;;;;;;;;;;;;;;;17.64;68.47;100613.02;1669256;84;25922;-75
2021/06/29 00:23:20;;;;;;;;;;;;;;;17.59;68.62;100607.46;1668974;84;26438;-75
2021/06/29 00:25:47;;;;;;;;;;;;;;;17.56;68.80;100603.33;1692666;84;25724;-75
2021/06/29 00:28:14;;;;;;;;;;;;;;;17.51;68.57;100601.83;1691078;84;25896;-75
2021/06/29 00:30:41;;;;;;;;;;;;;;;17.45;68.65;100600.02;1613882;84;28874;-75
2021/06/29 00:33:08;;;;;;;;;;;;;;;17.42;68.78;100598.31;1692135;84;25994;-75
2021/06/29 00:35:35;;;;;;;;;;;;;;;17.39;68.93;100594.19;1673041;84;25940;-75
2021/06/29 00:38:02;;;;;;;;;;;;;;;17.38;69.21;100593.07;1669368;84;25790;-75
2021/06/29 00:40:29;;;;;;;;;;;;;;;17.35;69.01;100592.16;1691851;84;25806;-75
2021/06/29 00:42:56;;;;;;;;;;;;;;;17.34;69.12;100590.53;1668937;84;28204;-75
2021/06/29 00:45:22;;;;;;;;;;;;;;;17.31;69.15;100595.88;1646771;84;26646;-75
2021/06/29 00:47:49;;;;;;;;;;;;;;;17.29;69.17;100594.45;1691261;84;25723;-75
2021/06/29 00:50:16;;;;;;;;;;;;;;;17.27;69.17;100594.69;1646918;84;25961;-75
2021/06/29 00:52:43;;;;;;;;;;;;;;;17.28;69.35;100592.27;1692428;84;25931;-75
2021/06/29 00:55:12;;;;;;;;;;;;;;;17.27;69.34;100589.27;1669261;84;27525;-75
2021/06/29 00:57:40;;;;;;;;;;;;;;;17.27;69.31;100593.86;1669262;84;25779;-75
2021/06/29 01:00:08;;;;;;;;;;;;;;;17.22;69.47;100591.83;1691701;84;25806;-75
2021/06/29 01:02:35;;;;;;;;;;;;;;;17.21;69.66;100595.61;1668695;84;26238;-75
2021/06/29 01:05:04;;;;;;;;;;;;;;;17.18;69.71;100596.58;1655226;84;25795;-75
2021/06/29 01:07:30;;;;;;;;;;;;;;;17.15;69.45;100591.09;1699794;84;27565;-75
2021/06/29 01:09:57;;;;;;;;;;;;;;;17.12;69.46;100589.38;1677717;84;25830;-75
2021/06/29 01:12:24;;;;;;;;;;;;;;;17.08;69.19;100585.48;1701176;84;25742;-75
2021/06/29 01:14:50;;;;;;;;;;;;;;;17.01;69.19;100589.63;1677500;82;26616;-75
2021/06/29 01:17:18;;;;;;;;;;;;;;;16.98;69.42;100585.50;1677833;84;25337;-75
2021/06/29 01:19:50;;;;;;;;;;;;;;;16.96;69.74;100586.77;1700041;84;27551;-75
2021/06/29 01:22:17;;;;;;;;;;;;;;;17.00;69.91;100591.23;1701041;84;26712;-75
2021/06/29 01:24:48;;;;;;;;;;;;;;;17.00;70.13;100593.37;1701326;83;25290;-75
2021/06/29 01:32:24;;;;;;;;;;;;;;;16.95;69.64;100596.80;1669474;84;27626;-75
2021/06/29 01:34:51;;;;;;;;;;;;;;;16.90;69.72;100600.70;1699860;84;26146;-75
2021/06/29 01:37:19;;;;;;;;;;;;;;;16.87;69.68;100594.93;1701479;84;25871;-75
2021/06/29 01:39:55;;;;;;;;;;;;;;;16.81;69.74;100592.59;1654136;84;25966;-75
2021/06/29 01:42:22;;;;;;;;;;;;;;;16.79;69.83;100585.23;1699783;84;25786;-75
2021/06/29 01:44:48;;;;;;;;;;;;;;;16.72;69.70;100582.33;1655443;84;27535;-75
2021/06/29 01:47:24;;;;;;;;;;;;;;;16.62;69.64;100576.59;1663473;85;25766;-75
2021/06/29 01:49:44;;;;;;;;;;;;;;;16.56;69.52;100574.29;1685942;84;25747;-75
2021/06/29 01:52:10;;;;;;;;;;;;;;;16.48;69.56;100577.27;1649816;85;25959;-75
2021/06/29 01:54:38;;;;;;;;;;;;;;;16.44;69.75;100584.70;1673606;83;25712;-75
2021/06/29 01:57:06;;;;;;;;;;;;;;;16.37;69.75;100579.36;1672961;85;27260;-76
2021/06/29 01:59:32;;;;;;;;;;;;;;;16.31;69.61;100572.67;1626844;85;26645;-75
2021/06/29 02:01:59;;;;;;;;;;;;;;;16.25;69.87;100568.17;1673045;85;26466;-75
2021/06/29 02:04:26;;;;;;;;;;;;;;;16.17;69.94;100570.11;1638590;84;26430;-75
2021/06/29 02:06:52;;;;;;;;;;;;;;;16.14;70.34;100562.44;1705589;83;25831;-75
2021/06/29 02:09:19;;;;;;;;;;;;;;;16.13;70.46;100558.09;1652351;86;27462;-75
2021/06/29 02:11:46;;;;;;;;;;;;;;;16.10;70.46;100557.18;1664728;86;26572;-75
2021/06/29 02:14:12;;;;;;;;;;;;;;;16.08;70.45;100557.93;1664910;86;26578;-75
2021/06/29 02:16:39;;;;;;;;;;;;;;;16.07;70.44;100560.34;1658394;83;25823;-75
2021/06/29 02:19:09;;;;;;;;;;;;;;;16.03;70.48;100553.73;1584764;88;25956;-75
2021/06/29 02:21:35;;;;;;;;;;;;;;;16.00;70.56;100553.34;1624388;87;27569;-75
2021/06/29 02:24:01;;;;;;;;;;;;;;;15.94;70.48;100557.77;1628775;86;25846;-75
2021/06/29 02:26:28;;;;;;;;;;;;;;;15.89;70.46;100563.52;1637875;86;25911;-75
2021/06/29 02:28:55;;;;;;;;;;;;;;;15.86;70.70;100558.58;1651221;86;25910;-75
2021/06/29 02:31:22;;;;;;;;;;;;;;;15.84;70.74;100571.48;1637774;86;25996;-75
2021/06/29 02:33:48;;;;;;;;;;;;;;;15.74;71.08;100572.52;1651125;86;28059;-75
2021/06/29 02:36:15;;;;;;;;;;;;;;;15.69;71.43;100573.69;1660241;86;26633;-75
2021/06/29 02:38:42;;;;;;;;;;;;;;;15.68;71.70;100576.07;1637845;86;25831;-75
2021/06/29 02:41:08;;;;;;;;;;;;;;;15.65;71.94;100578.72;1651168;86;26161;-75
2021/06/29 02:43:37;;;;;;;;;;;;;;;15.70;72.07;100570.77;1659970;86;26109;-75
2021/06/29 02:46:04;;;;;;;;;;;;;;;15.76;72.15;100574.47;1637888;86;27553;-75
2021/06/29 02:48:30;;;;;;;;;;;;;;;15.76;71.97;100567.17;1651356;86;26565;-75
2021/06/29 02:50:57;;;;;;;;;;;;;;;15.79;71.86;100574.02;1637589;86;25927;-75
2021/06/29 02:53:24;;;;;;;;;;;;;;;15.81;71.88;100566.00;1650997;86;26266;-75
2021/06/29 02:55:50;;;;;;;;;;;;;;;15.82;71.96;100568.18;1660117;86;25932;-75
2021/06/29 02:58:17;;;;;;;;;;;;;;;15.83;72.07;100567.95;1637950;86;27040;-75
2021/06/29 03:00:44;;;;;;;;;;;;;;;15.84;72.22;100562.86;1651222;86;25852;-75
2021/06/29 03:03:10;;;;;;;;;;;;;;;15.84;72.07;100562.86;1659915;86;26283;-75
2021/06/29 03:05:37;;;;;;;;;;;;;;;15.83;72.05;100559.01;1657710;85;25848;-75
2021/06/29 03:08:04;;;;;;;;;;;;;;;15.81;72.18;100561.95;1657266;85;25882;-75
2021/06/29 03:10:30;;;;;;;;;;;;;;;15.82;72.27;100554.67;1604673;88;27908;-75
2021/06/29 03:12:57;;;;;;;;;;;;;;;15.83;72.48;100554.44;1629450;86;25923;-75
2021/06/29 03:15:24;;;;;;;;;;;;;;;15.83;72.31;100557.66;1645058;85;25755;-75
2021/06/29 03:17:51;;;;;;;;;;;;;;;15.83;72.22;100557.66;1617632;86;26351;-75
2021/06/29 03:20:17;;;;;;;;;;;;;;;15.84;72.24;100560.16;1663889;86;25734;-75
2021/06/29 03:22:44;;;;;;;;;;;;;;;15.84;72.28;100560.16;1618852;86;28347;-75
2021/06/29 03:25:11;;;;;;;;;;;;;;;15.86;72.39;100556.72;1640384;86;25857;-75
2021/06/29 03:27:38;;;;;;;;;;;;;;;15.88;72.25;100555.13;1663997;85;25308;-75
2021/06/29 03:30:07;;;;;;;;;;;;;;;15.91;72.45;100558.75;1634774;86;26384;-75
2021/06/29 03:32:34;;;;;;;;;;;;;;;16.01;72.83;100559.89;1656586;85;25875;-75
2021/06/29 03:35:07;;;;;;;;;;;;;;;16.11;72.72;100558.02;1652337;86;27596;-75
2021/06/29 03:37:29;;;;;;;;;;;;;;;16.20;72.62;100565.63;1606238;86;25826;-75
2021/06/29 03:39:56;;;;;;;;;;;;;;;16.31;72.67;100568.63;1649755;86;25741;-75
2021/06/29 03:42:23;;;;;;;;;;;;;;;16.39;72.87;100560.20;1652350;86;27086;-75
2021/06/29 03:44:49;;;;;;;;;;;;;;;16.48;73.02;100556.98;1627361;86;25755;-75
2021/06/29 03:47:16;;;;;;;;;;;;;;;16.56;73.19;100566.69;1652797;86;27630;-75
2021/06/29 03:49:43;;;;;;;;;;;;;;;16.63;73.30;100559.34;1626948;86;26492;-75
2021/06/29 03:52:09;;;;;;;;;;;;;;;16.71;73.28;100567.13;1605611;86;25906;-75
2021/06/29 03:54:36;;;;;;;;;;;;;;;16.82;73.47;100563.66;1652241;86;26481;-75
2021/06/29 03:57:03;;;;;;;;;;;;;;;16.90;73.48;100566.05;1606098;86;25836;-75
2021/06/29 03:59:30;;;;;;;;;;;;;;;17.01;73.71;100567.15;1649402;86;27591;-75
2021/06/29 04:01:57;;;;;;;;;;;;;;;17.11;73.92;100572.86;1643725;85;25892;-75
2021/06/29 04:04:23;;;;;;;;;;;;;;;17.22;74.13;100562.58;1642243;86;26141;-75
2021/06/29 04:06:50;;;;;;;;;;;;;;;17.35;73.95;100560.51;1677015;85;26259;-75
2021/06/29 04:09:17;;;;;;;;;;;;;;;17.45;74.07;100561.31;1679007;85;26518;-75
2021/06/29 04:11:43;;;;;;;;;;;;;;;17.57;74.03;100561.66;1655962;85;27676;-75
2021/06/29 04:14:10;;;;;;;;;;;;;;;17.73;74.02;100565.55;1680112;85;25907;-75
2021/06/29 04:16:37;;;;;;;;;;;;;;;17.86;73.68;100572.09;1656669;85;25769;-75
2021/06/29 04:19:04;;;;;;;;;;;;;;;17.99;73.65;100569.68;1679778;85;25873;-75
2021/06/29 04:21:30;;;;;;;;;;;;;;;18.13;73.72;100565.17;1679324;85;26456;-75
2021/06/29 04:24:04;;;;;;;;;;;;;;;18.27;73.86;100559.78;1656856;85;28306;-75
2021/06/29 04:26:26;;;;;;;;;;;;;;;18.40;73.61;100566.83;1680194;85;25933;-75
2021/06/29 04:28:52;;;;;;;;;;;;;;;18.50;73.62;100569.78;1656733;85;25892;-76
2021/06/29 04:31:19;;;;;;;;;;;;;;;18.63;73.94;100568.16;1679599;84;26554;-75
2021/06/29 04:33:46;;;;;;;;;;;;;;;18.74;73.45;100572.74;1680284;85;26388;-75
2021/06/29 04:36:13;;;;;;;;;;;;;;;18.86;73.53;100568.09;1679743;85;27737;-75
2021/06/29 04:38:41;;;;;;;;;;;;;;;18.98;73.47;100564.82;1679690;85;25854;-75
2021/06/29 04:41:07;;;;;;;;;;;;;;;19.09;73.16;100575.34;1679347;84;26501;-76
2021/06/29 04:43:37;;;;;;;;;;;;;;;19.18;73.03;100567.89;1656614;85;25862;-75
2021/06/29 04:46:03;;;;;;;;;;;;;;;19.27;73.06;100573.76;1680560;85;25896;-75
2021/06/29 04:48:30;;;;;;;;;;;;;;;19.37;72.82;100567.73;1656778;85;27479;-75
2021/06/29 04:50:57;;;;;;;;;;;;;;;19.46;72.37;100563.55;1656534;85;25742;-76
2021/06/29 04:53:23;;;;;;;;;;;;;;;19.53;72.83;100563.66;1680364;85;25907;-75
2021/06/29 04:55:50;;;;;;;;;;;;;;;19.62;72.77;100573.06;1679576;84;26013;-75
2021/06/29 04:58:17;;;;;;;;;;;;;;;19.72;72.62;100562.35;1679842;85;25737;-75
2021/06/29 05:00:45;;;;;;;;;;;;;;;19.82;72.46;100567.14;1656812;85;28287;-75
2021/06/29 05:03:13;;;;;;;;;;;;;;;19.90;71.91;100560.75;1656895;85;26010;-75
2021/06/29 05:05:40;;;;;;;;;;;;;;;20.02;72.33;100559.28;1679783;85;25770;-75
2021/06/29 05:08:07;;;;;;;;;;;;;;;20.15;71.99;100565.73;1675117;83;26500;-75
2021/06/29 05:10:35;;;;;;;;;;;;;;;20.26;71.50;100561.29;1668895;85;26510;-75
2021/06/29 05:13:01;;;;;;;;;;;;;;;20.35;71.34;100567.42;1699037;84;28170;-75
2021/06/29 05:15:28;;;;;;;;;;;;;;;20.47;71.55;100557.23;1651149;84;26207;-75
2021/06/29 05:17:55;;;;;;;;;;;;;;;20.59;71.14;100553.05;1689325;84;25372;-75
2021/06/29 05:20:21;;;;;;;;;;;;;;;20.68;70.86;100555.58;1665909;85;25867;-75
2021/06/29 05:22:48;;;;;;;;;;;;;;;20.80;70.43;100561.73;1653020;85;25768;-75
2021/06/29 05:25:15;;;;;;;;;;;;;;;20.94;70.57;100562.14;1685940;84;27640;-75
2021/06/29 05:27:43;;;;;;;;;;;;;;;21.04;70.26;100563.67;1665511;85;26558;-75
2021/06/29 05:30:10;;;;;;;;;;;;;;;21.13;70.12;100560.75;1643237;85;26544;-75
2021/06/29 05:32:37;;;;;;;;;;;;;;;21.25;70.36;100558.19;1685438;85;25848;-75
2021/06/29 05:35:06;;;;;;;;;;;;;;;21.34;69.71;100549.00;1665891;85;25849;-75
2021/06/29 05:37:33;;;;;;;;;;;;;;;21.43;68.15;100550.98;1689373;84;27441;-75
2021/06/29 05:39:59;;;;;;;;;;;;;;;21.55;67.52;100552.72;1665422;85;25830;-75
2021/06/29 05:42:26;;;;;;;;;;;;;;;21.66;67.38;100555.29;1666136;85;25970;-75
2021/06/29 05:44:53;;;;;;;;;;;;;;;21.77;67.11;100548.01;1685678;83;25880;-75
2021/06/29 05:47:21;;;;;;;;;;;;;;;21.87;66.92;100553.56;1665715;85;25808;-76
2021/06/29 05:49:49;;;;;;;;;;;;;;;21.96;66.74;100550.63;1643896;85;27682;-75
2021/06/29 05:52:16;;;;;;;;;;;;;;;22.07;66.33;100549.59;1685489;85;26374;-75
2021/06/29 05:54:44;;;;;;;;;;;;;;;22.14;66.32;100540.64;1643783;85;25863;-76
2021/06/29 05:57:13;;;;;;;;;;;;;;;22.24;65.12;100543.41;1689064;84;25928;-75
2021/06/29 05:59:40;;;;;;;;;;;;;;;22.32;65.12;100542.94;1642067;85;26806;-74
2021/06/29 06:02:08;;;;;;;;;;;;;;;22.43;65.57;100536.98;1665702;85;27582;-75
2021/06/29 06:04:35;;;;;;;;;;;;;;;22.54;65.37;100539.48;1661163;86;25769;-75
2021/06/29 06:07:02;;;;;;;;;;;;;;;22.66;64.80;100537.93;1679124;84;25874;-76
2021/06/29 06:09:29;;;;;;;;;;;;;;;22.77;65.23;100527.33;1679462;85;25915;-75
2021/06/29 06:11:56;;;;;;;;;;;;;;;22.90;64.74;100537.18;1679042;85;25806;-75
2021/06/29 06:14:22;;;;;;;;;;;;;;;23.00;64.69;100535.03;1639353;85;27461;-76
2021/06/29 06:16:49;;;;;;;;;;;;;;;23.09;64.43;100540.79;1689401;84;25751;-76
2021/06/29 06:19:16;;;;;;;;;;;;;;;23.20;64.75;100536.45;1670625;84;25844;-76
2021/06/29 06:21:42;;;;;;;;;;;;;;;23.32;64.24;100534.27;1670615;84;25898;-75
2021/06/29 06:24:09;;;;;;;;;;;;;;;23.41;63.81;100532.67;1670751;83;25824;-75
2021/06/29 06:26:36;;;;;;;;;;;;;;;23.51;64.18;100535.95;1670504;84;27419;-75
2021/06/29 06:29:03;;;;;;;;;;;;;;;23.60;62.89;100536.50;1647484;84;25377;-75
2021/06/29 06:31:30;;;;;;;;;;;;;;;23.68;62.83;100534.58;1690824;84;25758;-75
2021/06/29 06:33:56;;;;;;;;;;;;;;;23.80;62.98;100539.78;1637421;84;26684;-75
2021/06/29 06:36:23;;;;;;;;;;;;;;;23.93;62.83;100546.61;1694079;84;25523;-75
2021/06/29 06:38:50;;;;;;;;;;;;;;;24.01;61.85;100541.39;1690606;83;27466;-76
2021/06/29 06:41:17;;;;;;;;;;;;;;;24.06;61.26;100544.70;1670611;84;25882;-76
2021/06/29 06:43:44;;;;;;;;;;;;;;;24.12;61.70;100536.75;1691255;84;25798;-75
2021/06/29 06:46:11;;;;;;;;;;;;;;;24.19;61.19;100538.63;1670961;84;25880;-75
2021/06/29 06:48:38;;;;;;;;;;;;;;;24.27;61.27;100540.25;1694009;84;26040;-76
2021/06/29 06:51:05;;;;;;;;;;;;;;;24.34;60.87;100538.05;1669768;84;27050;-75
2021/06/29 06:53:32;;;;;;;;;;;;;;;24.42;60.06;100541.57;1636709;84;25996;-76
2021/06/29 06:55:59;;;;;;;;;;;;;;;24.46;60.28;100539.91;1693917;84;25780;-75
2021/06/29 06:58:26;;;;;;;;;;;;;;;24.54;59.36;100534.42;1670547;84;25891;-76
2021/06/29 07:00:53;;;;;;;;;;;;;;;24.60;59.63;100536.03;1670965;84;26044;-76
2021/06/29 07:03:20;;;;;;;;;;;;;;;24.69;58.66;100534.90;1690652;83;28335;-76
2021/06/29 07:05:47;;;;;;;;;;;;;;;24.73;58.57;100532.69;1671378;84;25275;-75
2021/06/29 07:08:14;;;;;;;;;;;;;;;24.82;58.28;100531.58;1646810;84;25749;-75
2021/06/29 07:10:42;;;;;;;;;;;;;;;24.89;57.39;100536.21;1689105;84;26679;-75
2021/06/29 07:13:09;;;;;;;;;;;;;;;24.94;55.90;100536.98;1647198;84;26191;-75
2021/06/29 07:15:36;;;;;;;;;;;;;;;25.00;56.61;100538.59;1689165;84;27628;-75
2021/06/29 07:18:03;;;;;;;;;;;;;;;25.12;56.65;100538.27;1668968;84;25811;-76
2021/06/29 07:20:29;;;;;;;;;;;;;;;25.18;55.28;100538.49;1669443;84;25779;-75
2021/06/29 07:22:56;;;;;;;;;;;;;;;25.21;55.47;100533.83;1689214;84;26060;-76
2021/06/29 07:25:23;;;;;;;;;;;;;;;25.28;55.33;100529.64;1668904;84;26399;-76
2021/06/29 07:27:49;;;;;;;;;;;;;;;25.37;55.07;100528.48;1647163;84;28274;-75
2021/06/29 07:30:16;;;;;;;;;;;;;;;25.48;54.41;100536.11;1689322;84;25818;-76
2021/06/29 07:32:43;;;;;;;;;;;;;;;25.58;55.43;100527.79;1646572;84;25937;-76
2021/06/29 07:35:11;;;;;;;;;;;;;;;25.64;54.47;100519.80;1692501;84;25889;-76
2021/06/29 07:37:38;;;;;;;;;;;;;;;25.71;53.44;100525.76;1689246;84;25858;-75
2021/06/29 07:40:06;;;;;;;;;;;;;;;25.79;52.96;100525.16;1692475;84;27583;-75
2021/06/29 07:42:33;;;;;;;;;;;;;;;25.85;52.76;100530.86;1613504;84;25933;-75
2021/06/29 07:45:00;;;;;;;;;;;;;;;25.91;51.46;100527.78;1689476;84;25876;-75
2021/06/29 07:47:27;;;;;;;;;;;;;;;25.97;51.78;100523.05;1646726;84;26794;-76
2021/06/29 07:49:54;;;;;;;;;;;;;;;26.05;53.15;100519.66;1669122;84;25761;-76
2021/06/29 07:52:21;;;;;;;;;;;;;;;26.13;52.00;100519.08;1688912;84;27655;-76
2021/06/29 07:54:48;;;;;;;;;;;;;;;26.21;51.12;100514.86;1650653;84;26530;-76
2021/06/29 07:57:14;;;;;;;;;;;;;;;26.28;51.43;100514.76;1689446;84;25855;-75
2021/06/29 07:59:41;;;;;;;;;;;;;;;26.38;50.93;100512.47;1692601;84;27101;-76
2021/06/29 08:02:08;;;;;;;;;;;;;;;26.40;50.52;100511.06;1613965;84;26058;-76
2021/06/29 08:04:36;;;;;;;;;;;;;;;26.44;49.97;100514.03;1691749;84;28133;-76
2021/06/29 08:07:03;;;;;;;;;;;;;;;26.49;50.57;100511.23;1655950;84;26104;-76
2021/06/29 08:09:30;;;;;;;;;;;;;;;26.52;48.25;100516.95;1683927;83;25831;-76
2021/06/29 08:11:57;;;;;;;;;;;;;;;26.54;48.36;100518.02;1714987;83;26448;-76
2021/06/29 08:14:23;;;;;;;;;;;;;;;26.56;48.92;100511.70;1695675;83;26556;-76
2021/06/29 08:16:50;;;;;;;;;;;;;;;26.63;49.16;100514.89;1718966;83;27607;-76
2021/06/29 08:19:17;;;;;;;;;;;;;;;26.72;49.33;100509.86;1717096;83;25884;-76
2021/06/29 08:21:44;;;;;;;;;;;;;;;26.80;49.08;100510.30;1675081;83;25867;-76
2021/06/29 08:24:11;;;;;;;;;;;;;;;26.88;48.63;100508.28;1717963;83;26527;-76
2021/06/29 08:26:37;;;;;;;;;;;;;;;26.92;48.59;100503.27;1711993;82;25813;-76
2021/06/29 08:29:04;;;;;;;;;;;;;;;26.94;47.98;100509.29;1682812;83;27513;-76
2021/06/29 08:31:31;;;;;;;;;;;;;;;26.99;47.92;100505.07;1717268;83;25736;-76
2021/06/29 08:33:58;;;;;;;;;;;;;;;27.04;47.79;100503.63;1684223;83;26536;-76
2021/06/29 08:36:25;;;;;;;;;;;;;;;27.04;47.30;100496.76;1723565;83;26401;-76
2021/06/29 08:38:51;;;;;;;;;;;;;;;27.09;47.77;100499.99;1723799;83;26337;-76
2021/06/29 08:41:18;;;;;;;;;;;;;;;27.14;47.36;100503.47;1687120;83;27503;-76
2021/06/29 08:43:45;;;;;;;;;;;;;;;27.21;47.62;100499.80;1721683;83;25919;-76
2021/06/29 08:46:11;;;;;;;;;;;;;;;27.28;46.49;100498.04;1711941;83;25902;-76
2021/06/29 08:48:38;;;;;;;;;;;;;;;27.33;46.16;100494.64;1681794;83;25886;-75
2021/06/29 08:51:06;;;;;;;;;;;;;;;27.35;44.83;100493.02;1721839;83;25819;-76
2021/06/29 08:53:33;;;;;;;;;;;;;;;27.31;44.19;100485.05;1696880;83;27660;-76
2021/06/29 08:56:01;;;;;;;;;;;;;;;27.33;44.49;100481.47;1721515;83;25742;-76
2021/06/29 08:58:28;;;;;;;;;;;;;;;27.34;45.01;100485.28;1720581;82;25824;-76
2021/06/29 09:00:55;;;;;;;;;;;;;;;27.42;45.62;100492.05;1697063;83;25844;-76
2021/06/29 09:03:23;;;;;;;;;;;;;;;27.55;46.10;100491.84;1721174;83;25888;-76
2021/06/29 09:05:53;;;;;;;;;;;;;;;27.67;44.86;100491.64;1708424;82;45511;-76
2021/06/29 09:08:22;;;;;;;;;;;;;;;27.73;45.33;100489.60;1659149;83;25763;-76
2021/06/29 09:11:12;;;;;;;;;;;;;;;27.79;46.04;100488.38;1706766;82;25345;-76
2021/06/29 09:13:41;;;;;;;;;;;;;;;27.85;45.21;100493.50;1675170;84;26702;-76
2021/06/29 09:16:09;;;;;;;;;;;;;;;27.88;43.92;100483.27;1675775;84;25920;-76
2021/06/29 09:18:42;;;;;;;;;;;;;;;27.92;45.50;100486.22;1677243;84;27479;-75
2021/06/29 09:21:11;;;;;;;;;;;;;;;28.02;45.46;100483.30;1675188;84;25409;-76
2021/06/29 09:23:40;;;;;;;;;;;;;;;28.05;42.84;100486.83;1669422;85;25830;-76
2021/06/29 09:26:15;;;;;;;;;;;;;;;28.03;43.82;100489.89;1698963;82;25786;-77
2021/06/29 09:28:47;;;;;;;;;;;;;;;28.11;44.81;100488.36;1626746;84;25820;-76
2021/06/29 09:31:16;;;;;;;;;;;;;;;28.18;44.01;100492.36;1669639;85;28329;-76
2021/06/29 09:33:46;;;;;;;;;;;;;;;28.26;43.88;100490.81;1698690;84;25913;-76
2021/06/29 09:36:16;;;;;;;;;;;;;;;28.35;43.76;100485.41;1624139;85;26006;-76
2021/06/29 09:38:45;;;;;;;;;;;;;;;28.41;43.67;100480.86;1698695;84;26475;-76
2021/06/29 09:41:14;;;;;;;;;;;;;;;28.46;43.53;100480.77;1639475;85;25826;-77
2021/06/29 09:43:43;;;;;;;;;;;;;;;28.46;40.94;100474.42;1699185;84;28076;-75
2021/06/29 09:46:13;;;;;;;;;;;;;;;28.40;40.52;100466.81;1669075;85;25871;-76
2021/06/29 09:48:50;;;;;;;;;;;;;;;28.32;39.89;100473.61;1626378;84;25819;-76
2021/06/29 09:51:19;;;;;;;;;;;;;;;28.27;39.42;100470.42;1646394;85;26086;-76
2021/06/29 09:53:48;;;;;;;;;;;;;;;28.26;39.80;100463.27;1674912;84;25915;-76
2021/06/29 09:56:18;;;;;;;;;;;;;;;28.29;39.92;100464.05;1675028;84;28373;-76
2021/06/29 09:58:51;;;;;;;;;;;;;;;28.40;41.25;100464.64;1669216;85;25821;-76
2021/06/29 10:01:20;;;;;;;;;;;;;;;28.52;42.51;100462.98;1653216;84;25913;-76
2021/06/29 10:03:52;;;;;;;;;;;;;;;28.63;41.32;100464.44;1669914;85;26543;-76
2021/06/29 10:06:24;;;;;;;;;;;;;;;28.72;41.05;100460.39;1652465;85;25909;-76
2021/06/29 10:08:53;;;;;;;;;;;;;;;28.79;41.03;100461.58;1637897;86;27370;-77
2021/06/29 10:11:22;;;;;;;;;;;;;;;28.83;40.74;100452.11;1638876;86;26817;-76
2021/06/29 10:13:52;;;;;;;;;;;;;;;28.87;41.33;100445.67;1647263;86;25804;-76
2021/06/29 10:16:24;;;;;;;;;;;;;;;28.94;41.54;100449.38;1650008;86;26388;-76
2021/06/29 10:21:30;;;;;;;;;;;;;;;28.94;39.34;100441.09;1629171;86;27643;-76
2021/06/29 10:24:00;;;;;;;;;;;;;;;29.00;40.42;100438.47;1652274;85;25948;-76
2021/06/29 10:26:28;;;;;;;;;;;;;;;29.10;41.05;100441.56;1650000;86;25819;-76
2021/06/29 10:28:56;;;;;;;;;;;;;;;29.12;39.69;100433.23;1606275;86;26356;-76
2021/06/29 10:31:27;;;;;;;;;;;;;;;29.16;39.21;100427.36;1652489;86;25889;-76
2021/06/29 10:33:56;;;;;;;;;;;;;;;29.21;40.27;100431.94;1627893;86;27661;-76
2021/06/29 10:36:24;;;;;;;;;;;;;;;29.21;38.01;100427.24;1610425;87;26628;-76
2021/06/29 10:38:53;;;;;;;;;;;;;;;29.26;39.24;100428.48;1625610;88;25872;-76
2021/06/29 10:41:22;;;;;;;;;;;;;;;29.33;39.97;100428.86;1674898;85;26540;-76
2021/06/29 10:43:50;;;;;;;;;;;;;;;29.38;39.36;100429.30;1627849;86;26010;-76
2021/06/29 10:46:33;;;;;;;;;;;;;;;29.42;38.29;100433.05;1650382;85;27628;-76
2021/06/29 10:49:36;;;;;;;;;;;;;;;29.44;39.08;100429.41;1627504;86;25817;-76
2021/06/29 10:52:05;;;;;;;;;;;;;;;29.53;38.10;100430.28;1652544;86;25757;-76
2021/06/29 10:54:41;;;;;;;;;;;;;;;29.51;36.09;100431.16;1649704;86;25872;-76
2021/06/29 10:57:15;;;;;;;;;;;;;;;29.45;36.83;100429.08;1643525;86;25829;-76
2021/06/29 10:59:43;;;;;;;;;;;;;;;29.53;37.82;100431.66;1646295;86;28399;-76
2021/06/29 11:02:13;;;;;;;;;;;;;;;29.62;37.78;100429.73;1615298;87;25763;-75
2021/06/29 11:04:54;;;;;;;;;;;;;;;29.70;37.66;100431.16;1633738;86;25829;-76
2021/06/29 11:07:31;;;;;;;;;;;;;;;29.76;36.87;100422.22;1698546;84;25854;-76
2021/06/29 11:10:03;;;;;;;;;;;;;;;29.76;35.01;100422.22;1687065;84;25810;-76
2021/06/29 11:12:32;;;;;;;;;;;;;;;29.80;37.43;100423.21;1699239;84;28630;-76
2021/06/29 11:15:01;;;;;;;;;;;;;;;29.89;37.87;100412.20;1652659;84;26136;-76
2021/06/29 11:17:50;;;;;;;;;;;;;;;29.95;38.40;100414.50;1675112;84;25979;-76
2021/06/29 11:20:19;;;;;;;;;;;;;;;30.08;36.47;100408.61;1699604;84;26527;-76
2021/06/29 11:22:57;;;;;;;;;;;;;;;30.19;37.69;100408.00;1667761;84;26393;-76
2021/06/29 11:25:42;;;;;;;;;;;;;;;30.26;36.49;100406.95;1699451;84;28036;-76
2021/06/29 11:28:30;;;;;;;;;;;;;;;30.32;36.45;100398.80;1698704;82;26588;-76
2021/06/29 11:31:03;;;;;;;;;;;;;;;30.29;35.94;100398.58;1686822;84;25746;-76
2021/06/29 11:34:07;;;;;;;;;;;;;;;30.26;36.27;100390.95;1699160;84;26517;-76
2021/06/29 11:36:38;;;;;;;;;;;;;;;30.24;36.02;100391.84;1698831;84;25850;-76
2021/06/29 11:39:17;;;;;;;;;;;;;;;30.25;35.37;100376.31;1686973;82;27424;-76
2021/06/29 11:42:02;;;;;;;;;;;;;;;30.27;34.33;100378.75;1699318;84;25845;-76
2021/06/29 11:44:33;;;;;;;;;;;;;;;30.28;35.43;100374.86;1653914;84;25802;-76
2021/06/29 11:47:06;;;;;;;;;;;;;;;30.29;33.93;100367.62;1699385;84;25880;-76
2021/06/29 11:49:45;;;;;;;;;;;;;;;30.11;33.38;100365.95;1698779;84;25791;-76
2021/06/29 11:52:17;;;;;;;;;;;;;;;30.07;36.37;100368.32;1686811;82;27513;-76
2021/06/29 11:54:53;;;;;;;;;;;;;;;30.13;35.25;100365.65;1699438;84;25780;-76
2021/06/29 11:57:23;;;;;;;;;;;;;;;30.10;35.01;100361.58;1674205;84;25747;-76
2021/06/29 11:59:53;;;;;;;;;;;;;;;30.09;35.53;100358.55;1699521;83;25775;-75
2021/06/29 12:02:25;;;;;;;;;;;;;;;30.23;35.24;100354.28;1698677;84;25783;-76
2021/06/29 12:05:00;;;;;;;;;;;;;;;30.40;34.72;100352.39;1663097;84;28263;-77
2021/06/29 12:07:42;;;;;;;;;;;;;;;30.58;35.30;100349.63;1616845;86;25856;-76
2021/06/29 12:10:27;;;;;;;;;;;;;;;30.70;34.91;100346.45;1663544;86;25800;-76
2021/06/29 12:13:01;;;;;;;;;;;;;;;30.73;34.30;100343.61;1639933;86;25994;-76
2021/06/29 12:15:50;;;;;;;;;;;;;;;30.78;34.68;100347.57;1640247;86;25906;-76
2021/06/29 12:18:19;;;;;;;;;;;;;;;30.75;34.90;100339.95;1637844;87;28098;-76
2021/06/29 12:20:52;;;;;;;;;;;;;;;30.77;34.86;100337.10;1655327;85;25881;-76
2021/06/29 12:23:22;;;;;;;;;;;;;;;30.85;34.42;100338.22;1677048;85;25830;-76
2021/06/29 12:25:58;;;;;;;;;;;;;;;30.90;33.62;100327.03;1655358;85;26437;-76
2021/06/29 12:28:28;;;;;;;;;;;;;;;30.92;33.01;100332.48;1676424;85;25789;-76
2021/06/29 12:30:57;;;;;;;;;;;;;;;30.96;32.28;100318.23;1676808;85;27099;-76
2021/06/29 12:33:32;;;;;;;;;;;;;;;30.93;32.31;100311.95;1633556;85;25783;-76
2021/06/29 12:36:08;;;;;;;;;;;;;;;30.94;32.45;100309.45;1678099;85;25827;-76
2021/06/29 12:38:44;;;;;;;;;;;;;;;30.99;33.73;100311.20;1655526;85;25793;-76
2021/06/29 12:41:22;;;;;;;;;;;;;;;31.02;32.32;100305.84;1676990;85;25300;-76
2021/06/29 12:43:58;;;;;;;;;;;;;;;30.99;31.92;100301.52;1677509;84;27474;-76
2021/06/29 12:46:33;;;;;;;;;;;;;;;30.96;31.07;100295.28;1678527;85;25750;-76
2021/06/29 12:49:09;;;;;;;;;;;;;;;30.94;31.36;100296.18;1655726;85;26005;-76
2021/06/29 12:51:42;;;;;;;;;;;;;;;30.98;31.66;100293.81;1677226;85;26517;-76